createdAt,value
2019-05-07T05:20:30.896Z,22.10
2019-05-07T07:26:37.513Z,15.30
2019-05-07T07:49:14.869Z,17.60
2019-05-07T07:56:08.800Z,15.30
2019-05-07T08:03:29.925Z,17.20
2019-05-07T08:37:24.069Z,17.20
2019-05-07T08:49:31.650Z,15.30
2019-05-07T09:24:02.932Z,14.10
2019-05-07T09:45:04.340Z,13.10
2019-05-07T10:00:46.696Z,13.20
2019-05-07T10:18:52.245Z,13.50
2019-05-07T10:25:08.506Z,13.30
2019-05-07T12:29:02.623Z,11.70
2019-05-07T12:36:32.777Z,10.40
2019-05-07T12:41:17.279Z,7.70
2019-05-07T12:46:08.581Z,7.20
2019-05-07T12:51:31.448Z,8.10
2019-05-07T12:56:44.359Z,9.00
2019-05-07T13:02:18.292Z,10.10
2019-05-07T13:07:41.774Z,8.80
2019-05-07T13:12:58.189Z,8.30
2019-05-07T13:17:51.953Z,6.70
2019-05-07T13:22:44.859Z,6.40
2019-05-07T13:27:39.955Z,8.10
2019-05-07T13:32:34.077Z,7.10
2019-05-07T13:37:26.876Z,7.60
2019-05-07T13:42:21.342Z,5.40
2019-05-07T13:47:13.871Z,6.10
2019-05-07T13:52:06.817Z,8.30
2019-05-07T13:56:59.833Z,5.80
2019-05-07T14:01:52.454Z,7.30
2019-05-07T14:06:44.541Z,7.70
2019-05-07T14:11:36.419Z,7.40
2019-05-07T14:16:27.956Z,8.00
2019-05-07T14:21:33.357Z,9.60
2019-05-07T14:26:42.191Z,9.70
2019-05-07T14:32:17.934Z,10.50
2019-05-07T14:37:15.861Z,10.00
2019-05-07T14:42:22.058Z,10.40
2019-05-07T14:47:52.561Z,10.60
2019-05-07T14:52:55.103Z,11.10
2019-05-07T14:58:24.093Z,9.90
2019-05-07T15:03:39.745Z,8.10
2019-05-07T15:08:52.177Z,9.20
2019-05-07T15:14:24.680Z,9.90
2019-05-07T15:19:16.026Z,9.30
2019-05-07T15:24:18.915Z,8.70
2019-05-07T15:29:14.451Z,8.30
2019-05-07T15:34:17.502Z,8.40
2019-05-07T15:39:18.759Z,8.20
2019-05-07T15:44:15.821Z,7.00
2019-05-07T15:49:12.382Z,9.10
2019-05-07T15:54:23.760Z,9.70
2019-05-07T15:59:25.256Z,10.40
2019-05-07T16:05:02.141Z,9.40
2019-05-07T16:09:55.575Z,8.40
2019-05-07T16:14:56.467Z,9.80
2019-05-07T16:19:48.750Z,8.10
2019-05-07T16:24:56.146Z,6.70
2019-05-07T16:29:46.492Z,6.40
2019-05-07T16:34:53.807Z,6.30
2019-05-07T16:40:12.617Z,7.90
2019-05-07T16:45:04.261Z,9.90
2019-05-07T16:50:41.099Z,11.10
2019-05-07T16:55:32.761Z,8.40
2019-05-07T17:00:32.499Z,10.40
2019-05-07T17:05:27.354Z,8.50
2019-05-07T17:10:36.991Z,7.10
2019-05-07T17:15:28.675Z,7.60
2019-05-07T17:20:22.543Z,7.70
2019-05-07T17:25:17.494Z,7.60
2019-05-07T17:36:03.280Z,6.60
2019-05-07T17:41:10.676Z,8.80
2019-05-07T17:46:37.796Z,7.30
2019-05-07T17:51:54.347Z,8.30
2019-05-07T17:56:48.411Z,8.50
2019-05-07T18:01:55.830Z,7.00
2019-05-07T18:07:00.254Z,8.90
2019-05-07T18:12:06.723Z,8.50
2019-05-07T18:17:04.806Z,8.60
2019-05-07T18:22:13.062Z,7.20
2019-05-07T18:27:12.572Z,9.60
2019-05-07T18:32:12.848Z,6.90
2019-05-07T18:37:23.377Z,7.50
2019-05-07T18:42:56.135Z,10.50
2019-05-07T18:47:48.293Z,7.80
2019-05-07T18:52:48.262Z,7.90
2019-05-07T18:57:47.153Z,8.10
2019-05-07T19:09:55.796Z,9.40
2019-05-07T19:15:36.403Z,11.90
2019-05-07T19:21:52.966Z,18.10
2019-05-07T19:27:22.000Z,11.60
2019-05-07T19:32:52.269Z,9.90
2019-05-07T19:38:11.422Z,11.00
2019-05-07T19:44:45.479Z,10.80
2019-05-07T19:49:55.217Z,11.30
2019-05-07T20:00:48.294Z,13.30
2019-05-07T20:06:47.477Z,12.30
2019-05-07T20:12:16.349Z,16.50
2019-05-07T20:17:33.294Z,10.90
2019-05-07T20:28:19.361Z,10.70
2019-05-07T20:33:38.815Z,12.10
2019-05-07T20:38:57.869Z,32.70
2019-05-07T20:44:16.313Z,19.00
2019-05-07T20:49:27.099Z,12.70
2019-05-07T20:54:52.714Z,12.70
2019-05-07T21:00:22.881Z,10.10
2019-05-07T21:26:59.763Z,11.80
2019-05-07T22:11:34.851Z,10.30
2019-05-07T22:55:42.539Z,10.60
2019-05-07T23:07:08.836Z,8.70
2019-05-07T23:23:39.333Z,8.00
2019-05-07T23:28:58.676Z,10.20
2019-05-07T23:34:52.688Z,9.70
2019-05-07T23:40:57.035Z,8.00
2019-05-07T23:46:27.216Z,8.20
2019-05-07T23:52:37.946Z,8.90
